Time;durP1;ratioP1;P1;durP2;ratioP2;P2;SDS_P1;SDS_P2;PMS_P1;PMS_P2;Temp;Humidity;BMP_temperature;BMP_pressure;BME280_temperature;BME280_humidity;BME280_pressure;Samples;Min_cycle;Max_cycle;Signal;HPM_P1;HPM_P2
2022/11/09 00:01:06;;;;;;;2.40;2.20;;;;;;;;;;4983322;28;20309;-84
2022/11/09 00:03:33;;;;;;;2.30;2.20;;;;;;;;;;4982324;28;20673;-84
2022/11/09 00:06:01;;;;;;;3.27;2.30;;;;;;;;;;4990035;28;20211;-84
2022/11/09 00:08:28;;;;;;;4.13;2.30;;;;;;;;;;4993369;28;20212;-84
2022/11/09 00:10:55;;;;;;;3.20;2.40;;;;;;;;;;4993182;28;20230;-84
2022/11/09 00:13:22;;;;;;;2.40;2.20;;;;;;;;;;4993788;28;20669;-84
2022/11/09 00:15:51;;;;;;;3.43;2.80;;;;;;;;;;4992759;28;20577;-83
2022/11/09 00:18:18;;;;;;;3.93;2.47;;;;;;;;;;4984989;28;20208;-84
2022/11/09 00:20:45;;;;;;;4.27;2.70;;;;;;;;;;4973707;28;20301;-83
2022/11/09 00:23:12;;;;;;;3.83;2.57;;;;;;;;;;4982380;28;20232;-84
2022/11/09 00:25:39;;;;;;;2.50;2.23;;;;;;;;;;4982783;28;20669;-83
2022/11/09 00:28:06;;;;;;;3.20;2.50;;;;;;;;;;4987949;28;20235;-84
2022/11/09 00:30:33;;;;;;;4.40;2.97;;;;;;;;;;4993021;28;20250;-84
2022/11/09 00:33:02;;;;;;;7.80;2.60;;;;;;;;;;4992420;28;20579;-84
2022/11/09 00:35:29;;;;;;;4.50;2.60;;;;;;;;;;4993067;28;20208;-84
2022/11/09 00:37:56;;;;;;;2.50;2.30;;;;;;;;;;4992099;28;20236;-83
2022/11/09 00:40:23;;;;;;;3.23;2.70;;;;;;;;;;4992927;28;20216;-83
2022/11/09 00:42:50;;;;;;;5.97;3.00;;;;;;;;;;4977466;28;20235;-83
2022/11/09 00:45:17;;;;;;;2.70;2.50;;;;;;;;;;4992253;28;20251;-84
2022/11/09 00:47:44;;;;;;;4.40;2.83;;;;;;;;;;4976336;28;20235;-84
2022/11/09 00:50:13;;;;;;;5.07;3.13;;;;;;;;;;4982482;28;20716;-84
2022/11/09 00:52:40;;;;;;;5.27;2.83;;;;;;;;;;4985635;28;20239;-85
2022/11/09 00:55:07;;;;;;;3.93;2.60;;;;;;;;;;4993003;28;20216;-84
2022/11/09 00:57:34;;;;;;;4.33;2.50;;;;;;;;;;4972918;28;20240;-85
2022/11/09 01:00:01;;;;;;;2.17;1.97;;;;;;;;;;4973807;28;20216;-85
2022/11/09 01:02:28;;;;;;;3.17;2.43;;;;;;;;;;4973044;28;20248;-84
2022/11/09 01:04:56;;;;;;;4.73;2.10;;;;;;;;;;4973877;28;20211;-85
2022/11/09 01:07:24;;;;;;;4.17;2.30;;;;;;;;;;4973161;28;20740;-85
2022/11/09 01:09:51;;;;;;;5.97;2.00;;;;;;;;;;4973849;28;20228;-85
2022/11/09 01:12:18;;;;;;;3.07;2.10;;;;;;;;;;4976207;28;20626;-85
2022/11/09 01:14:45;;;;;;;2.10;1.90;;;;;;;;;;4996203;28;20199;-85
2022/11/09 01:17:12;;;;;;;2.87;2.50;;;;;;;;;;4997553;28;20243;-84
2022/11/09 01:19:39;;;;;;;2.50;2.20;;;;;;;;;;4996317;28;20204;-84
2022/11/09 01:22:06;;;;;;;4.33;2.60;;;;;;;;;;4996124;28;20818;-85
2022/11/09 01:24:35;;;;;;;5.20;2.43;;;;;;;;;;4995020;28;20208;-84
2022/11/09 01:27:02;;;;;;;3.87;2.40;;;;;;;;;;5001925;28;20767;-84
2022/11/09 01:29:29;;;;;;;3.50;2.40;;;;;;;;;;4974782;28;20228;-84
2022/11/09 01:31:56;;;;;;;3.27;2.37;;;;;;;;;;4973540;28;20237;-84
2022/11/09 01:34:24;;;;;;;3.23;2.70;;;;;;;;;;4978614;28;20208;-85
2022/11/09 01:36:51;;;;;;;2.60;2.40;;;;;;;;;;4985078;28;20236;-84
2022/11/09 01:39:18;;;;;;;5.60;2.80;;;;;;;;;;4976436;28;20200;-83
2022/11/09 01:41:47;;;;;;;2.83;2.50;;;;;;;;;;4977112;28;20263;-84
2022/11/09 01:44:16;;;;;;;3.60;3.00;;;;;;;;;;4982547;28;20208;-84
2022/11/09 01:46:46;;;;;;;5.70;2.77;;;;;;;;;;4988968;28;20727;-84
2022/11/09 01:49:15;;;;;;;3.20;3.00;;;;;;;;;;4972854;28;20240;-84
2022/11/09 01:51:44;;;;;;;4.70;2.80;;;;;;;;;;4972389;28;20244;-84
2022/11/09 01:54:14;;;;;;;2.80;2.57;;;;;;;;;;4972637;28;20212;-84
2022/11/09 01:56:41;;;;;;;4.00;2.87;;;;;;;;;;4974246;28;20251;-85
2022/11/09 01:59:12;;;;;;;4.37;2.57;;;;;;;;;;4977658;28;20676;-86
2022/11/09 02:01:39;;;;;;;3.20;2.90;;;;;;;;;;4983192;28;20836;-85
2022/11/09 02:04:11;;;;;;;3.90;2.90;;;;;;;;;;4981551;28;20208;-85
2022/11/09 02:06:38;;;;;;;3.07;2.77;;;;;;;;;;4978203;28;20235;-85
2022/11/09 02:09:11;;;;;;;2.80;2.40;;;;;;;;;;4975318;28;20240;-85
2022/11/09 02:11:38;;;;;;;3.10;2.63;;;;;;;;;;4986217;28;20236;-85
2022/11/09 02:14:06;;;;;;;2.90;2.60;;;;;;;;;;4995128;28;20677;-85
2022/11/09 02:16:34;;;;;;;3.27;2.97;;;;;;;;;;4994057;28;20232;-85
2022/11/09 02:19:02;;;;;;;2.50;2.30;;;;;;;;;;4995202;28;20208;-85
2022/11/09 02:21:31;;;;;;;2.33;2.20;;;;;;;;;;4993677;28;20705;-84
2022/11/09 02:23:58;;;;;;;4.70;2.50;;;;;;;;;;4995275;28;20212;-85
2022/11/09 02:26:27;;;;;;;2.20;2.10;;;;;;;;;;4975514;28;20236;-85
2022/11/09 02:28:55;;;;;;;2.50;2.30;;;;;;;;;;4983733;28;20212;-85
2022/11/09 02:31:23;;;;;;;4.43;1.97;;;;;;;;;;4976665;28;20241;-85
2022/11/09 02:33:54;;;;;;;2.97;2.13;;;;;;;;;;4985070;28;20208;-84
2022/11/09 02:36:22;;;;;;;2.20;2.10;;;;;;;;;;4989164;28;20232;-84
2022/11/09 02:38:52;;;;;;;2.17;2.00;;;;;;;;;;4977173;28;20260;-85
2022/11/09 02:41:20;;;;;;;3.30;2.00;;;;;;;;;;4974457;28;20606;-85
2022/11/09 02:43:47;;;;;;;2.17;2.07;;;;;;;;;;4983193;28;20212;-85
2022/11/09 02:46:14;;;;;;;2.10;1.90;;;;;;;;;;4982674;28;20239;-85
2022/11/09 02:48:41;;;;;;;2.53;2.20;;;;;;;;;;4994898;28;20208;-85
2022/11/09 02:51:08;;;;;;;2.17;2.07;;;;;;;;;;4977546;28;20240;-84
2022/11/09 02:53:35;;;;;;;2.17;2.00;;;;;;;;;;4988489;28;20223;-84
2022/11/09 02:56:04;;;;;;;2.03;1.87;;;;;;;;;;4975050;28;20216;-84
2022/11/09 02:58:31;;;;;;;1.90;1.73;;;;;;;;;;4975304;28;20205;-84
2022/11/09 03:00:58;;;;;;;1.90;1.80;;;;;;;;;;4976143;28;20607;-85
2022/11/09 03:03:25;;;;;;;1.93;1.70;;;;;;;;;;4994481;28;20699;-84
2022/11/09 03:05:52;;;;;;;2.27;1.93;;;;;;;;;;4994177;28;20208;-84
2022/11/09 03:08:19;;;;;;;3.03;1.80;;;;;;;;;;4994370;28;20212;-85
2022/11/09 03:10:46;;;;;;;1.70;1.60;;;;;;;;;;4993878;28;20224;-83
2022/11/09 03:13:15;;;;;;;2.50;1.80;;;;;;;;;;4993741;28;20673;-85
2022/11/09 03:15:42;;;;;;;3.70;2.67;;;;;;;;;;4980935;28;20227;-85
2022/11/09 03:18:09;;;;;;;2.97;1.83;;;;;;;;;;4974720;28;20657;-85
2022/11/09 03:20:37;;;;;;;4.53;1.87;;;;;;;;;;4974929;28;20211;-84
2022/11/09 03:23:04;;;;;;;4.07;1.97;;;;;;;;;;4974406;28;20302;-85
2022/11/09 03:25:31;;;;;;;3.23;1.80;;;;;;;;;;4974602;28;20677;-85
2022/11/09 03:27:58;;;;;;;1.77;1.50;;;;;;;;;;4974000;28;20239;-84
2022/11/09 03:30:27;;;;;;;1.60;1.50;;;;;;;;;;4978078;28;20231;-84
2022/11/09 03:32:57;;;;;;;2.23;1.80;;;;;;;;;;4993528;28;20236;-84
2022/11/09 03:35:25;;;;;;;2.07;1.97;;;;;;;;;;4994199;28;20206;-84
2022/11/09 03:37:52;;;;;;;2.00;1.90;;;;;;;;;;4993174;28;20242;-84
2022/11/09 03:40:19;;;;;;;3.07;2.03;;;;;;;;;;4993927;28;20220;-84
2022/11/09 03:42:47;;;;;;;3.73;2.50;;;;;;;;;;4992774;28;20232;-84
2022/11/09 03:45:14;;;;;;;2.50;2.03;;;;;;;;;;4993906;28;20220;-84
2022/11/09 03:47:43;;;;;;;2.30;2.20;;;;;;;;;;4993051;28;20236;-84
2022/11/09 03:50:10;;;;;;;2.87;2.10;;;;;;;;;;4981553;28;20231;-84
2022/11/09 03:52:37;;;;;;;4.43;2.43;;;;;;;;;;4993072;28;20250;-84
2022/11/09 03:55:05;;;;;;;2.20;2.10;;;;;;;;;;4993701;28;20204;-84
2022/11/09 03:57:32;;;;;;;2.87;2.17;;;;;;;;;;4973407;28;20239;-84
2022/11/09 03:59:59;;;;;;;2.30;2.20;;;;;;;;;;4974281;28;20204;-84
2022/11/09 04:02:26;;;;;;;2.37;2.17;;;;;;;;;;4973460;28;20240;-84
2022/11/09 04:04:55;;;;;;;3.00;2.10;;;;;;;;;;4973818;28;20205;-84
2022/11/09 04:07:22;;;;;;;2.57;2.37;;;;;;;;;;4973332;28;20725;-84
2022/11/09 04:09:49;;;;;;;2.50;2.30;;;;;;;;;;4973114;28;20225;-84
2022/11/09 04:12:16;;;;;;;4.13;2.30;;;;;;;;;;4972939;28;20243;-84
2022/11/09 04:14:43;;;;;;;2.20;2.00;;;;;;;;;;4973788;28;20216;-84
2022/11/09 04:17:10;;;;;;;2.60;2.40;;;;;;;;;;4976090;28;20745;-85
2022/11/09 04:19:38;;;;;;;3.70;2.77;;;;;;;;;;4992945;28;20325;-84
2022/11/09 04:22:06;;;;;;;2.60;2.40;;;;;;;;;;4992523;28;20240;-84
2022/11/09 04:24:33;;;;;;;2.60;2.40;;;;;;;;;;4976646;28;20220;-85
2022/11/09 04:27:00;;;;;;;4.40;2.23;;;;;;;;;;4987488;28;20231;-84
2022/11/09 04:29:27;;;;;;;3.00;2.33;;;;;;;;;;4992663;28;20294;-85
2022/11/09 04:31:55;;;;;;;3.57;2.80;;;;;;;;;;4984040;28;20247;-84
2022/11/09 04:34:22;;;;;;;2.70;2.50;;;;;;;;;;4987347;28;20213;-85
2022/11/09 04:36:49;;;;;;;2.63;2.43;;;;;;;;;;4974999;28;20727;-85
2022/11/09 04:39:17;;;;;;;3.23;2.50;;;;;;;;;;4991203;28;20192;-85
2022/11/09 04:41:44;;;;;;;4.03;2.87;;;;;;;;;;4992601;28;20236;-86
2022/11/09 04:44:11;;;;;;;3.30;2.60;;;;;;;;;;4975951;28;20209;-85
2022/11/09 04:46:39;;;;;;;2.37;2.27;;;;;;;;;;4996970;28;20888;-86
2022/11/09 04:49:06;;;;;;;2.77;2.57;;;;;;;;;;5012869;28;20207;-87
2022/11/09 04:51:33;;;;;;;2.87;2.47;;;;;;;;;;5012524;28;20249;-87
2022/11/09 04:54:02;;;;;;;3.27;2.67;;;;;;;;;;5013272;28;20211;-93
2022/11/09 04:56:32;;;;;;;3.10;2.70;;;;;;;;;;5011816;28;20231;-87
2022/11/09 04:59:03;;;;;;;2.80;2.60;;;;;;;;;;5012392;28;20566;-85
2022/11/09 05:01:30;;;;;;;2.60;2.40;;;;;;;;;;5011439;28;20235;-85
2022/11/09 05:03:57;;;;;;;2.77;2.30;;;;;;;;;;5012173;28;20198;-85
2022/11/09 05:06:33;;;;;;;3.13;2.67;;;;;;;;;;5005511;28;20224;-84
2022/11/09 05:09:01;;;;;;;2.60;2.40;;;;;;;;;;4991488;28;20202;-86
2022/11/09 05:11:28;;;;;;;5.43;2.60;;;;;;;;;;4976081;28;20243;-86
2022/11/09 05:13:56;;;;;;;3.20;2.60;;;;;;;;;;4973512;28;20642;-85
2022/11/09 05:16:23;;;;;;;3.30;2.30;;;;;;;;;;4974978;28;20647;-86
2022/11/09 05:18:51;;;;;;;3.97;2.57;;;;;;;;;;4976507;28;20221;-86
2022/11/09 05:21:18;;;;;;;2.63;2.43;;;;;;;;;;4972864;28;20259;-85
2022/11/09 05:23:57;;;;;;;2.90;2.53;;;;;;;;;;4973379;28;20219;-85
2022/11/09 05:26:25;;;;;;;2.80;2.50;;;;;;;;;;4975889;28;20224;-86
2022/11/09 05:28:52;;;;;;;2.17;2.07;;;;;;;;;;4973444;28;20263;-85
2022/11/09 05:31:21;;;;;;;2.57;2.40;;;;;;;;;;4972765;28;20247;-86
2022/11/09 05:33:49;;;;;;;2.23;2.10;;;;;;;;;;4973513;28;20220;-86
2022/11/09 05:36:16;;;;;;;2.60;2.03;;;;;;;;;;4975598;28;20236;-85
2022/11/09 05:38:43;;;;;;;2.20;2.00;;;;;;;;;;4976977;28;20205;-85
2022/11/09 05:41:10;;;;;;;2.23;1.87;;;;;;;;;;4976132;28;20240;-81
2022/11/09 05:43:37;;;;;;;2.77;2.20;;;;;;;;;;4976105;28;20583;-82
2022/11/09 05:46:04;;;;;;;2.00;1.90;;;;;;;;;;4975946;28;20232;-80
2022/11/09 05:48:33;;;;;;;2.93;2.00;;;;;;;;;;4984949;28;20208;-80
2022/11/09 05:51:01;;;;;;;2.37;2.00;;;;;;;;;;4994802;28;20238;-80
2022/11/09 05:53:28;;;;;;;4.33;2.30;;;;;;;;;;4995672;28;20219;-79
2022/11/09 05:55:56;;;;;;;2.33;2.13;;;;;;;;;;4985022;28;20700;-79
2022/11/09 05:58:23;;;;;;;4.20;2.07;;;;;;;;;;4994410;28;20213;-79
2022/11/09 06:00:50;;;;;;;1.83;1.73;;;;;;;;;;4993732;28;20228;-79
2022/11/09 06:03:17;;;;;;;2.97;1.80;;;;;;;;;;4994792;28;20207;-79
2022/11/09 06:05:46;;;;;;;2.60;2.07;;;;;;;;;;4993634;28;20212;-79
2022/11/09 06:08:14;;;;;;;2.90;1.93;;;;;;;;;;4994106;28;20219;-78
2022/11/09 06:10:42;;;;;;;2.20;2.00;;;;;;;;;;4994226;28;20616;-78
2022/11/09 06:13:09;;;;;;;2.10;2.00;;;;;;;;;;4994185;28;20235;-78
2022/11/09 06:15:37;;;;;;;2.03;1.90;;;;;;;;;;4993640;28;20239;-78
2022/11/09 06:18:04;;;;;;;2.00;1.90;;;;;;;;;;4993274;28;20251;-78
2022/11/09 06:20:32;;;;;;;2.00;1.90;;;;;;;;;;4993969;28;20207;-78
2022/11/09 06:23:01;;;;;;;2.43;2.17;;;;;;;;;;4993693;28;20695;-79
2022/11/09 06:25:28;;;;;;;3.40;2.10;;;;;;;;;;4994148;28;20208;-79
2022/11/09 06:27:57;;;;;;;2.20;2.00;;;;;;;;;;4992632;28;20255;-78
2022/11/09 06:30:24;;;;;;;2.40;2.27;;;;;;;;;;4993845;28;20684;-79
2022/11/09 06:32:51;;;;;;;2.00;1.77;;;;;;;;;;4992986;28;20239;-78
2022/11/09 06:35:18;;;;;;;2.03;1.93;;;;;;;;;;4993217;28;20672;-79
2022/11/09 06:37:45;;;;;;;2.00;1.90;;;;;;;;;;4992817;28;20244;-79
2022/11/09 06:40:15;;;;;;;3.03;2.03;;;;;;;;;;4993354;28;20710;-79
2022/11/09 06:42:42;;;;;;;4.17;2.40;;;;;;;;;;4991033;28;20227;-80
2022/11/09 06:45:09;;;;;;;2.07;1.97;;;;;;;;;;4992689;28;20212;-80
2022/11/09 06:47:37;;;;;;;2.83;2.20;;;;;;;;;;4989253;28;20731;-80
2022/11/09 06:50:04;;;;;;;4.30;3.10;;;;;;;;;;4993381;28;20298;-79
2022/11/09 06:52:31;;;;;;;3.37;3.00;;;;;;;;;;4992969;28;20235;-79
2022/11/09 06:54:58;;;;;;;4.27;3.90;;;;;;;;;;4993215;28;20200;-80
2022/11/09 06:57:29;;;;;;;3.47;2.77;;;;;;;;;;4993010;28;20235;-80
2022/11/09 06:59:59;;;;;;;3.50;2.70;;;;;;;;;;4993771;28;20204;-80
2022/11/09 07:02:26;;;;;;;4.27;2.30;;;;;;;;;;4992820;28;20650;-80
2022/11/09 07:04:53;;;;;;;3.43;2.30;;;;;;;;;;4993015;28;20669;-80
2022/11/09 07:07:20;;;;;;;2.07;1.97;;;;;;;;;;4985070;28;20234;-80
2022/11/09 07:09:47;;;;;;;4.43;2.20;;;;;;;;;;4993202;28;20242;-80
2022/11/09 07:12:14;;;;;;;2.03;1.93;;;;;;;;;;4992655;28;20239;-80
2022/11/09 07:14:43;;;;;;;3.03;2.17;;;;;;;;;;4992953;28;20207;-80
2022/11/09 07:17:10;;;;;;;2.40;2.20;;;;;;;;;;4992788;28;20623;-79
2022/11/09 07:19:37;;;;;;;2.23;2.13;;;;;;;;;;4993239;28;20239;-80
2022/11/09 07:22:04;;;;;;;2.13;2.03;;;;;;;;;;4992588;28;20761;-80
2022/11/09 07:24:31;;;;;;;2.63;2.20;;;;;;;;;;4992832;28;20206;-79
2022/11/09 07:26:58;;;;;;;2.60;1.77;;;;;;;;;;4993023;28;20235;-79
2022/11/09 07:29:25;;;;;;;2.00;1.90;;;;;;;;;;4993264;28;20219;-79
2022/11/09 07:31:54;;;;;;;2.20;2.00;;;;;;;;;;4984015;28;20240;-79
2022/11/09 07:34:21;;;;;;;3.03;2.20;;;;;;;;;;4989222;28;20208;-79
2022/11/09 07:36:48;;;;;;;2.40;2.20;;;;;;;;;;4991598;28;20728;-79
2022/11/09 07:39:16;;;;;;;2.40;2.20;;;;;;;;;;4992528;28;20208;-78
2022/11/09 07:41:43;;;;;;;2.10;2.00;;;;;;;;;;4979359;28;20251;-79
2022/11/09 07:44:13;;;;;;;2.10;2.00;;;;;;;;;;4987922;28;20704;-79
2022/11/09 07:46:40;;;;;;;2.00;1.90;;;;;;;;;;4992529;28;20232;-79
2022/11/09 07:49:09;;;;;;;2.07;1.83;;;;;;;;;;4992766;28;20210;-79
2022/11/09 07:51:36;;;;;;;1.87;1.77;;;;;;;;;;4992320;28;20236;-79
2022/11/09 07:54:03;;;;;;;2.00;1.90;;;;;;;;;;4992853;28;20687;-79
2022/11/09 07:56:30;;;;;;;2.27;2.07;;;;;;;;;;4992346;28;20232;-79
2022/11/09 07:58:57;;;;;;;1.90;1.80;;;;;;;;;;4992284;28;20214;-79
2022/11/09 08:01:24;;;;;;;2.37;2.20;;;;;;;;;;4992309;28;20231;-79
2022/11/09 08:03:51;;;;;;;2.87;2.30;;;;;;;;;;4978480;28;20209;-79
2022/11/09 08:06:20;;;;;;;1.90;1.80;;;;;;;;;;4989586;28;20698;-79
2022/11/09 08:08:48;;;;;;;2.73;2.23;;;;;;;;;;4992872;28;20215;-79
2022/11/09 08:11:15;;;;;;;2.73;2.00;;;;;;;;;;4991706;28;20248;-79
2022/11/09 08:13:42;;;;;;;2.30;2.20;;;;;;;;;;4992440;28;20211;-79
2022/11/09 08:16:09;;;;;;;2.20;2.10;;;;;;;;;;4991772;28;20239;-79
2022/11/09 08:18:36;;;;;;;4.37;2.60;;;;;;;;;;4992176;28;20722;-78
2022/11/09 08:21:04;;;;;;;3.13;2.93;;;;;;;;;;4991592;28;25348;-78
2022/11/09 08:23:33;;;;;;;2.67;2.47;;;;;;;;;;4992514;28;20204;-79
2022/11/09 08:26:03;;;;;;;2.87;2.67;;;;;;;;;;4992045;28;20204;-78
2022/11/09 08:28:30;;;;;;;3.37;3.00;;;;;;;;;;4992143;28;20211;-79
2022/11/09 08:30:58;;;;;;;3.47;3.17;;;;;;;;;;4991731;28;20228;-79
2022/11/09 08:33:26;;;;;;;2.27;2.17;;;;;;;;;;4988265;28;20207;-79
2022/11/09 08:35:53;;;;;;;3.13;2.20;;;;;;;;;;4991798;28;20192;-79
2022/11/09 08:38:20;;;;;;;2.60;2.40;;;;;;;;;;4991940;28;20672;-79
2022/11/09 08:40:49;;;;;;;3.43;1.80;;;;;;;;;;4991956;28;20216;-79
2022/11/09 08:43:16;;;;;;;1.60;1.50;;;;;;;;;;4992429;28;20219;-78
2022/11/09 08:45:43;;;;;;;2.23;1.40;;;;;;;;;;4992788;28;20204;-79
2022/11/09 08:48:10;;;;;;;1.77;1.60;;;;;;;;;;4992538;28;20235;-79
2022/11/09 08:50:38;;;;;;;1.67;1.60;;;;;;;;;;4993582;28;20212;-79
2022/11/09 08:53:05;;;;;;;1.83;1.73;;;;;;;;;;5007043;28;20236;-78
2022/11/09 08:55:32;;;;;;;2.10;1.90;;;;;;;;;;5009535;28;20208;-79
2022/11/09 08:58:01;;;;;;;1.83;1.73;;;;;;;;;;5006250;28;20307;-78
2022/11/09 09:00:29;;;;;;;1.43;1.43;;;;;;;;;;5001994;28;20213;-78
2022/11/09 09:02:56;;;;;;;1.20;1.20;;;;;;;;;;5003573;28;20216;-78
2022/11/09 09:05:23;;;;;;;1.60;1.50;;;;;;;;;;5009149;28;20263;-78
2022/11/09 09:07:50;;;;;;;1.60;1.50;;;;;;;;;;4991420;28;20807;-78
2022/11/09 09:10:17;;;;;;;1.40;1.40;;;;;;;;;;4992138;28;20714;-78
2022/11/09 09:12:45;;;;;;;2.30;1.00;;;;;;;;;;4995128;28;20723;-79
2022/11/09 09:15:13;;;;;;;0.87;0.87;;;;;;;;;;4995673;28;20211;-78
2022/11/09 09:17:40;;;;;;;0.80;0.80;;;;;;;;;;4995374;28;20246;-79
2022/11/09 09:20:08;;;;;;;0.97;0.97;;;;;;;;;;4996009;28;20192;-78
2022/11/09 09:22:35;;;;;;;1.07;1.07;;;;;;;;;;4995185;28;20247;-78
2022/11/09 09:25:02;;;;;;;1.63;1.13;;;;;;;;;;4983046;28;20200;-78
2022/11/09 09:27:29;;;;;;;1.23;1.10;;;;;;;;;;4995351;28;20727;-78
2022/11/09 09:29:56;;;;;;;1.13;1.00;;;;;;;;;;4992589;28;20212;-78
2022/11/09 09:32:25;;;;;;;1.57;1.47;;;;;;;;;;4994934;28;20240;-78
2022/11/09 09:34:52;;;;;;;1.00;1.00;;;;;;;;;;4995582;28;20204;-78
2022/11/09 09:37:19;;;;;;;1.43;1.30;;;;;;;;;;4995218;28;20235;-78
2022/11/09 09:39:46;;;;;;;1.27;1.20;;;;;;;;;;4986510;28;20227;-78
2022/11/09 09:42:15;;;;;;;1.33;1.00;;;;;;;;;;4993459;28;20236;-78
2022/11/09 09:44:45;;;;;;;3.00;1.13;;;;;;;;;;4992097;28;20200;-79
2022/11/09 09:47:14;;;;;;;0.93;0.93;;;;;;;;;;4992521;28;20342;-79
2022/11/09 09:49:44;;;;;;;1.30;1.20;;;;;;;;;;4994835;28;20396;-78
2022/11/09 09:52:16;;;;;;;1.27;1.17;;;;;;;;;;4994126;28;20260;-79
2022/11/09 09:54:45;;;;;;;2.20;1.20;;;;;;;;;;4993485;28;20212;-79
2022/11/09 09:57:14;;;;;;;1.20;1.10;;;;;;;;;;4988947;28;20228;-79
2022/11/09 09:59:42;;;;;;;1.10;1.10;;;;;;;;;;4993810;28;20208;-79
2022/11/09 10:02:15;;;;;;;1.40;1.30;;;;;;;;;;4993968;28;20306;-78
2022/11/09 10:04:44;;;;;;;1.30;1.20;;;;;;;;;;4994521;28;20200;-78
2022/11/09 10:07:13;;;;;;;1.33;1.13;;;;;;;;;;4993731;28;20255;-78
2022/11/09 10:09:46;;;;;;;1.13;1.13;;;;;;;;;;4992034;28;20676;-78
2022/11/09 10:12:18;;;;;;;1.87;1.40;;;;;;;;;;4993357;28;20894;-78
2022/11/09 10:15:02;;;;;;;1.40;1.30;;;;;;;;;;4994221;28;20580;-78
2022/11/09 10:17:34;;;;;;;1.70;1.60;;;;;;;;;;4993549;28;20235;-79
2022/11/09 10:20:10;;;;;;;1.90;1.80;;;;;;;;;;4993865;28;20216;-78
2022/11/09 10:22:41;;;;;;;1.40;1.30;;;;;;;;;;4993724;28;20247;-78
2022/11/09 10:25:12;;;;;;;1.80;1.70;;;;;;;;;;4994150;28;20211;-78
2022/11/09 10:27:43;;;;;;;2.73;1.40;;;;;;;;;;4993402;28;20732;-78
2022/11/09 10:30:13;;;;;;;1.60;1.50;;;;;;;;;;4994185;28;20215;-78
2022/11/09 10:32:41;;;;;;;1.70;1.60;;;;;;;;;;4993301;28;20247;-78
2022/11/09 10:35:15;;;;;;;1.83;1.67;;;;;;;;;;4993560;28;20204;-78
2022/11/09 10:37:45;;;;;;;1.73;1.63;;;;;;;;;;4993242;28;20676;-78
2022/11/09 10:40:17;;;;;;;1.20;1.20;;;;;;;;;;4993464;28;20262;-78
2022/11/09 10:42:45;;;;;;;2.03;1.40;;;;;;;;;;4993283;28;20231;-78
2022/11/09 10:45:13;;;;;;;1.40;1.30;;;;;;;;;;4993428;28;20669;-78
2022/11/09 10:47:50;;;;;;;1.33;1.33;;;;;;;;;;4993175;28;20248;-78
2022/11/09 10:50:25;;;;;;;3.33;1.53;;;;;;;;;;4993475;28;20283;-78
2022/11/09 10:52:52;;;;;;;2.30;1.50;;;;;;;;;;4993052;28;20231;-78
2022/11/09 10:55:26;;;;;;;2.03;1.80;;;;;;;;;;4993267;28;20215;-79
2022/11/09 10:57:55;;;;;;;1.57;1.47;;;;;;;;;;4992495;28;20227;-78
2022/11/09 11:00:23;;;;;;;2.03;1.67;;;;;;;;;;4993569;28;20212;-78
2022/11/09 11:02:51;;;;;;;2.27;1.77;;;;;;;;;;4993052;28;20236;-78
2022/11/09 11:05:27;;;;;;;2.20;1.63;;;;;;;;;;4993480;28;20212;-78
2022/11/09 11:07:54;;;;;;;1.70;1.60;;;;;;;;;;4992366;28;20239;-78
2022/11/09 11:10:22;;;;;;;1.80;1.53;;;;;;;;;;4993394;28;20210;-78
2022/11/09 11:12:53;;;;;;;2.40;1.60;;;;;;;;;;4992635;28;20239;-77
2022/11/09 11:15:23;;;;;;;2.30;2.10;;;;;;;;;;4993475;28;20222;-78
2022/11/09 11:17:50;;;;;;;1.30;1.20;;;;;;;;;;4992176;28;20235;-78
2022/11/09 11:20:26;;;;;;;1.80;1.30;;;;;;;;;;4993183;28;20216;-78
2022/11/09 11:23:06;;;;;;;2.13;1.43;;;;;;;;;;4992565;28;20323;-78
2022/11/09 11:25:33;;;;;;;2.40;1.30;;;;;;;;;;4992923;28;20215;-78
2022/11/09 11:28:04;;;;;;;1.00;1.00;;;;;;;;;;4992148;28;20250;-79
2022/11/09 11:30:35;;;;;;;2.47;1.40;;;;;;;;;;4992859;28;20218;-78
2022/11/09 11:33:02;;;;;;;1.70;1.40;;;;;;;;;;4991825;28;20725;-79
2022/11/09 11:35:33;;;;;;;2.83;1.70;;;;;;;;;;4992821;28;20212;-78
2022/11/09 11:38:06;;;;;;;4.13;1.37;;;;;;;;;;4991720;28;20246;-79
2022/11/09 11:40:38;;;;;;;1.90;1.53;;;;;;;;;;4993353;28;20223;-83
2022/11/09 11:43:16;;;;;;;1.33;1.30;;;;;;;;;;4992020;28;20749;-83
2022/11/09 11:45:43;;;;;;;3.20;1.40;;;;;;;;;;4992308;28;20214;-82
2022/11/09 11:48:24;;;;;;;3.63;1.57;;;;;;;;;;4993032;28;20668;-83
2022/11/09 11:50:52;;;;;;;6.67;2.40;;;;;;;;;;4992509;28;20223;-84
2022/11/09 11:53:29;;;;;;;3.37;2.00;;;;;;;;;;4993175;28;20240;-84
2022/11/09 11:56:03;;;;;;;2.93;1.33;;;;;;;;;;4992341;28;20207;-84
2022/11/09 11:58:39;;;;;;;2.10;1.60;;;;;;;;;;4996820;28;20212;-84
2022/11/09 12:01:13;;;;;;;1.80;1.57;;;;;;;;;;4992297;28;20608;-83
2022/11/09 12:03:47;;;;;;;1.50;1.40;;;;;;;;;;4992959;28;20667;-83
2022/11/09 12:06:29;;;;;;;1.40;1.30;;;;;;;;;;4991969;28;20242;-84
2022/11/09 12:09:11;;;;;;;3.20;1.90;;;;;;;;;;4986542;28;20732;-84
2022/11/09 12:11:44;;;;;;;3.20;1.53;;;;;;;;;;4984701;28;20242;-83
2022/11/09 12:14:18;;;;;;;4.97;1.70;;;;;;;;;;4992193;28;20215;-84
2022/11/09 12:16:48;;;;;;;2.30;1.70;;;;;;;;;;4990326;28;20258;-84
2022/11/09 12:19:28;;;;;;;3.60;1.40;;;;;;;;;;4992616;28;20210;-84
2022/11/09 12:21:58;;;;;;;3.20;1.40;;;;;;;;;;4992103;28;20670;-84
2022/11/09 12:24:28;;;;;;;2.23;1.30;;;;;;;;;;4992224;28;20218;-84
2022/11/09 12:27:03;;;;;;;3.60;2.47;;;;;;;;;;4991908;28;20236;-84
2022/11/09 12:29:32;;;;;;;2.00;1.30;;;;;;;;;;4991817;28;20218;-84
2022/11/09 12:32:06;;;;;;;3.03;1.70;;;;;;;;;;4991765;28;20240;-84
2022/11/09 12:34:35;;;;;;;2.73;1.67;;;;;;;;;;4991937;28;20212;-84
2022/11/09 12:37:04;;;;;;;2.77;1.77;;;;;;;;;;4991608;28;20682;-85
2022/11/09 12:39:33;;;;;;;1.73;1.30;;;;;;;;;;4992133;28;20242;-85
2022/11/09 12:42:04;;;;;;;4.03;1.50;;;;;;;;;;4991566;28;20244;-85
2022/11/09 12:44:34;;;;;;;4.17;1.63;;;;;;;;;;4991053;28;20585;-84
2022/11/09 12:47:03;;;;;;;6.47;2.07;;;;;;;;;;4991494;28;20250;-85
2022/11/09 12:49:35;;;;;;;6.13;2.20;;;;;;;;;;4991913;28;20215;-85
2022/11/09 12:52:03;;;;;;;2.73;2.23;;;;;;;;;;4991088;28;20266;-84
2022/11/09 12:54:30;;;;;;;3.00;2.17;;;;;;;;;;4991586;28;20211;-86
2022/11/09 12:56:59;;;;;;;3.23;1.67;;;;;;;;;;4991954;28;20616;-85
2022/11/09 12:59:37;;;;;;;3.83;1.90;;;;;;;;;;4991978;28;20661;-84
2022/11/09 13:02:05;;;;;;;1.50;1.40;;;;;;;;;;4991163;28;20728;-83
2022/11/09 13:04:33;;;;;;;4.43;1.70;;;;;;;;;;4980609;28;20213;-82
2022/11/09 13:07:15;;;;;;;2.13;1.43;;;;;;;;;;4986191;28;20228;-83
2022/11/09 13:09:42;;;;;;;2.90;1.70;;;;;;;;;;4971843;28;20231;-83
2022/11/09 13:12:17;;;;;;;2.30;1.80;;;;;;;;;;4986724;28;20251;-84
2022/11/09 13:14:46;;;;;;;2.40;2.03;;;;;;;;;;4971956;28;20211;-83
2022/11/09 13:17:33;;;;;;;3.83;1.90;;;;;;;;;;4976634;28;20231;-84
2022/11/09 13:20:00;;;;;;;3.13;1.57;;;;;;;;;;4981884;28;20205;-85
2022/11/09 13:22:46;;;;;;;2.80;1.73;;;;;;;;;;4991342;28;20266;-85
2022/11/09 13:25:28;;;;;;;1.50;1.30;;;;;;;;;;4991784;28;20223;-86
2022/11/09 13:27:56;;;;;;;3.23;2.00;;;;;;;;;;4991270;28;20708;-85
2022/11/09 13:30:41;;;;;;;5.33;2.00;;;;;;;;;;4991695;28;20208;-86
2022/11/09 13:33:21;;;;;;;2.50;1.90;;;;;;;;;;4990992;28;20278;-85
2022/11/09 13:36:14;;;;;;;3.30;2.10;;;;;;;;;;4991252;28;20204;-84
2022/11/09 13:38:41;;;;;;;3.30;1.60;;;;;;;;;;4973223;28;20682;-86
2022/11/09 13:41:23;;;;;;;3.50;1.90;;;;;;;;;;4990186;28;20236;-83
2022/11/09 13:44:07;;;;;;;1.90;1.80;;;;;;;;;;4990582;28;20208;-83
2022/11/09 13:46:38;;;;;;;2.60;1.70;;;;;;;;;;4990177;28;20670;-83
2022/11/09 13:49:32;;;;;;;3.07;1.80;;;;;;;;;;4990544;28;20208;-83
2022/11/09 13:51:59;;;;;;;3.00;2.13;;;;;;;;;;4990012;28;20239;-83
2022/11/09 13:54:30;;;;;;;2.40;1.50;;;;;;;;;;4982142;28;20243;-83
2022/11/09 13:56:57;;;;;;;2.77;2.00;;;;;;;;;;4972942;28;20620;-84
2022/11/09 13:59:27;;;;;;;4.53;2.10;;;;;;;;;;4974676;28;20685;-84
2022/11/09 14:01:56;;;;;;;5.97;2.00;;;;;;;;;;4974578;28;20312;-84
2022/11/09 14:04:25;;;;;;;2.30;2.00;;;;;;;;;;4977756;28;20219;-83
2022/11/09 14:06:56;;;;;;;3.07;1.97;;;;;;;;;;4993496;28;20232;-83
2022/11/09 14:09:23;;;;;;;2.37;1.80;;;;;;;;;;4994118;28;20223;-83
2022/11/09 14:11:58;;;;;;;4.67;2.00;;;;;;;;;;4990003;28;20247;-83
2022/11/09 14:14:36;;;;;;;1.93;1.70;;;;;;;;;;4993861;28;20603;-83
2022/11/09 14:17:09;;;;;;;6.23;2.27;;;;;;;;;;4993454;28;20598;-83
2022/11/09 14:19:40;;;;;;;7.47;2.03;;;;;;;;;;4992595;28;20665;-82
2022/11/09 14:22:14;;;;;;;4.03;2.13;;;;;;;;;;4992820;28;20252;-83
2022/11/09 14:24:41;;;;;;;4.87;1.90;;;;;;;;;;4994005;28;20267;-83
2022/11/09 14:27:19;;;;;;;2.60;1.80;;;;;;;;;;4992835;28;20236;-83
2022/11/09 14:29:50;;;;;;;2.80;1.60;;;;;;;;;;4974227;28;20584;-83
2022/11/09 14:32:26;;;;;;;5.33;1.60;;;;;;;;;;4973433;28;20244;-83
2022/11/09 14:34:53;;;;;;;2.03;1.93;;;;;;;;;;4973777;28;20677;-82
2022/11/09 14:37:21;;;;;;;1.73;1.63;;;;;;;;;;4984212;28;20711;-83
2022/11/09 14:39:49;;;;;;;3.60;2.50;;;;;;;;;;4993545;28;20255;-83
2022/11/09 14:42:19;;;;;;;3.90;2.33;;;;;;;;;;4992866;28;20235;-83
2022/11/09 14:44:46;;;;;;;3.80;2.83;;;;;;;;;;4990149;28;20209;-83
2022/11/09 14:47:15;;;;;;;2.60;2.30;;;;;;;;;;4973297;28;20232;-83
2022/11/09 14:49:45;;;;;;;3.90;2.70;;;;;;;;;;4978655;28;20298;-83
2022/11/09 14:52:13;;;;;;;5.90;2.60;;;;;;;;;;4992479;28;20239;-83
2022/11/09 14:54:40;;;;;;;6.63;2.13;;;;;;;;;;4993050;28;20263;-83